Time;durP1;ratioP1;P1;durP2;ratioP2;P2;SDS_P1;SDS_P2;PMS_P1;PMS_P2;Temp;Humidity;BMP_temperature;BMP_pressure;BME280_temperature;BME280_humidity;BME280_pressure;Samples;Min_cycle;Max_cycle;Signal;HPM_P1;HPM_P2
2022/02/03 00:02:57;;;;;;;41.72;23.98;;;;;;;1.40;100.00;99052.97;5095645;27;20379;-94
2022/02/03 00:05:34;;;;;;;40.63;24.77;;;;;;;1.14;100.00;99023.78;5095933;28;20044;-92
2022/02/03 00:24:02;;;;;;;31.33;18.08;;;;;;;1.21;100.00;99051.84;5114223;27;20377;-93
2022/02/03 00:26:16;;;;;;;30.30;18.73;;;;;;;1.12;100.00;99042.97;5112053;28;20080;-92
2022/02/03 00:28:46;;;;;;;31.55;17.83;;;;;;;1.25;100.00;99058.00;5093544;28;20044;-94
2022/02/03 00:34:23;;;;;;;30.40;17.80;;;;;;;1.25;100.00;99044.91;5072272;28;20428;-94
2022/02/03 00:51:38;;;;;;;35.92;21.60;;;;;;;0.97;100.00;99062.81;5141589;27;20383;-93
2022/02/03 00:54:11;;;;;;;38.22;22.70;;;;;;;0.96;100.00;99068.03;5158307;27;20074;-94
2022/02/03 00:56:38;;;;;;;31.25;19.65;;;;;;;0.85;100.00;99049.53;5138441;27;20039;-93
2022/02/03 00:59:07;;;;;;;30.30;20.13;;;;;;;0.86;100.00;99040.81;5137861;27;20473;-94
2022/02/03 01:01:35;;;;;;;33.33;20.40;;;;;;;0.88;100.00;99052.19;5135707;27;20066;-94
2022/02/03 01:04:05;;;;;;;34.65;21.85;;;;;;;0.90;100.00;99063.56;5138202;28;20055;-94
2022/02/03 01:06:49;;;;;;;40.83;21.75;;;;;;;0.86;100.00;99051.28;5139283;28;20043;-93
2022/02/03 01:09:21;;;;;;;32.35;19.23;;;;;;;0.81;100.00;99050.34;5139239;28;20044;-93
2022/02/03 01:11:48;;;;;;;33.25;19.33;;;;;;;1.02;100.00;99089.09;5136551;28;20493;-95
2022/02/03 01:14:24;;;;;;;33.60;19.33;;;;;;;0.95;100.00;99081.97;5136655;28;20027;-92
2022/02/03 01:44:16;;;;;;;32.42;18.17;;;;;;;0.59;100.00;99128.47;5096480;27;20375;-95
2022/02/03 01:46:55;;;;;;;33.20;20.33;;;;;;;0.48;100.00;99103.84;5095352;28;20044;-94
2022/02/03 01:52:39;;;;;;;29.92;17.75;;;;;;;0.77;100.00;99090.41;5148294;27;20369;-94
2022/02/03 01:55:11;;;;;;;29.00;16.80;;;;;;;0.81;100.00;99068.66;5114671;28;20052;-93
2022/02/03 01:57:52;;;;;;;29.08;18.35;;;;;;;0.82;100.00;99078.25;5116094;28;20067;-94
2022/02/03 02:00:21;;;;;;;28.00;17.33;;;;;;;0.71;100.00;99080.69;5115347;28;20036;-94
2022/02/03 02:03:07;;;;;;;26.77;15.73;;;;;;;0.77;100.00;99104.38;5116981;28;20044;-94
2022/02/03 02:05:42;;;;;;;23.48;14.70;;;;;;;0.54;100.00;99075.19;5116751;28;20044;-91
2022/02/03 02:08:25;;;;;;;27.65;17.27;;;;;;;0.64;100.00;99109.38;5115991;28;20153;-92
2022/02/03 02:11:15;;;;;;;29.83;18.10;;;;;;;0.53;100.00;99104.81;5116058;28;20040;-93
2022/02/03 02:20:01;;;;;;;29.65;17.45;;;;;;;0.18;100.00;99110.25;5145457;27;20738;-95
2022/02/03 02:44:15;;;;;;;22.88;13.98;;;;;;;-0.09;100.00;99094.88;5200999;27;20165;-94
2022/02/03 02:46:47;;;;;;;24.17;15.02;;;;;;;-0.05;100.00;99104.56;5200155;27;20077;-94
2022/02/03 02:49:23;;;;;;;24.48;15.13;;;;;;;-0.09;100.00;99092.25;5200370;27;20094;-93
2022/02/03 02:51:56;;;;;;;25.25;15.60;;;;;;;0.01;100.00;99102.94;5198775;27;20070;-94
2022/02/03 03:01:04;;;;;;;24.08;13.63;;;;;;;-0.12;100.00;99112.25;5119219;27;20377;-96
2022/02/03 03:35:46;;;;;;;22.08;13.27;;;;;;;-0.37;100.00;99126.50;5116744;27;20404;-95
2022/02/03 03:38:17;;;;;;;24.60;13.60;;;;;;;-0.49;100.00;99114.06;5117436;28;20610;-93
2022/02/03 03:40:49;;;;;;;29.45;15.52;;;;;;;-0.42;100.00;99126.41;5117481;28;20481;-94
2022/02/03 03:43:23;;;;;;;24.35;14.30;;;;;;;-0.37;100.00;99129.13;5117427;28;20043;-94
2022/02/03 03:45:54;;;;;;;26.55;15.43;;;;;;;-0.38;100.00;99146.53;5117417;28;20043;-94
2022/02/03 03:48:30;;;;;;;27.17;14.98;;;;;;;-0.50;100.00;99126.25;5116912;28;20455;-94
2022/02/03 03:51:04;;;;;;;27.98;15.43;;;;;;;-0.35;100.00;99138.75;5118149;28;20071;-93
2022/02/03 03:53:44;;;;;;;26.35;14.90;;;;;;;-0.30;100.00;99138.88;5116822;28;20035;-93
2022/02/03 03:56:23;;;;;;;27.25;15.93;;;;;;;-0.48;100.00;99137.63;5116671;28;20036;-93
2022/02/03 04:41:27;;;;;;;36.95;21.38;;;;;;;0.14;100.00;99158.13;5127814;27;20860;-96
2022/02/03 05:04:33;;;;;;;31.40;17.23;;;;;;;0.20;100.00;99201.84;5108479;27;20368;-93
2022/02/03 05:23:36;;;;;;;25.20;16.77;;;;;;;-0.12;100.00;99195.91;5170495;27;20364;-95
2022/02/03 05:52:02;;;;;;;23.17;13.75;;;;;;;-0.18;100.00;99233.22;5160017;27;20389;-96
2022/02/03 06:09:29;;;;;;;23.08;14.80;;;;;;;-0.27;100.00;99253.91;5181893;27;20380;-94
2022/02/03 06:15:23;;;;;;;33.88;18.42;;;;;;;-0.45;100.00;99275.28;5118880;27;20434;-96
2022/02/03 06:20:40;;;;;;;31.40;18.13;;;;;;;-0.44;100.00;99288.34;5115643;28;20039;-93
2022/02/03 06:29:56;;;;;;;34.30;18.65;;;;;;;-0.50;100.00;99330.03;5170163;27;20375;-93
2022/02/03 06:32:23;;;;;;;27.73;16.20;;;;;;;-0.34;100.00;99352.19;5138124;28;20131;-92
2022/02/03 06:34:49;;;;;;;31.10;17.55;;;;;;;-0.35;100.00;99354.75;5137715;27;20047;-96
2022/02/03 06:37:18;;;;;;;27.60;15.73;;;;;;;-0.54;100.00;99332.47;5137173;27;20050;-95
2022/02/03 06:39:44;;;;;;;27.13;15.77;;;;;;;-0.54;100.00;99349.06;5137798;27;20047;-95
2022/02/03 06:42:13;;;;;;;26.85;16.30;;;;;;;-0.48;100.00;99364.91;5138033;27;20043;-92
2022/02/03 06:44:47;;;;;;;26.90;16.20;;;;;;;-0.55;100.00;99359.47;5120832;28;20036;-95
2022/02/03 06:47:26;;;;;;;25.73;15.60;;;;;;;-0.56;100.00;99363.81;5121873;28;20140;-96
2022/02/03 06:50:18;;;;;;;24.00;15.27;;;;;;;-0.54;100.00;99363.84;5122888;28;20054;-96
2022/02/03 06:58:37;;;;;;;27.40;15.55;;;;;;;-0.42;100.00;99380.72;5161036;27;20335;-96
2022/02/03 07:01:18;;;;;;;29.23;16.85;;;;;;;-0.27;100.00;99400.28;5162388;27;20043;-96
2022/02/03 07:03:56;;;;;;;29.20;16.88;;;;;;;-0.31;100.00;99378.38;5163616;27;20043;-96
2022/02/03 07:07:17;;;;;;;;;;;;;;;;;;;;;
2022/02/03 07:10:02;;;;;;;34.35;19.58;;;;;;;-0.08;100.00;99391.19;5140404;28;20047;-95
2022/02/03 07:12:29;;;;;;;34.58;19.52;;;;;;;0.11;100.00;99423.88;5140213;28;20044;-95
2022/02/03 07:14:56;;;;;;;37.53;19.77;;;;;;;0.26;100.00;99441.69;5141915;28;20122;-96
2022/02/03 07:17:25;;;;;;;33.58;20.10;;;;;;;0.44;100.00;99430.81;5142692;27;20066;-96
2022/02/03 07:20:00;;;;;;;43.85;22.25;;;;;;;0.30;100.00;99399.94;5141431;28;20039;-95
2022/02/03 07:22:26;;;;;;;40.65;22.20;;;;;;;0.32;100.00;99411.34;5141807;28;20047;-96
2022/02/03 07:24:52;;;;;;;36.67;19.92;;;;;;;0.28;100.00;99413.84;5143817;28;20043;-96
2022/02/03 07:27:26;;;;;;;36.20;21.38;;;;;;;0.35;100.00;99439.34;5145274;27;20040;-96
2022/02/03 07:29:53;;;;;;;33.53;20.75;;;;;;;0.27;100.00;99427.78;5143314;28;20047;-96
2022/02/03 07:32:41;;;;;;;36.05;20.33;;;;;;;0.32;100.00;99431.38;5146871;28;20058;-96
2022/02/03 07:35:09;;;;;;;40.78;19.90;;;;;;;0.33;100.00;99434.06;5144984;28;20043;-96
2022/02/03 07:37:45;;;;;;;34.38;19.25;;;;;;;0.32;100.00;99432.25;5141317;27;20088;-96
2022/02/03 07:40:12;;;;;;;35.30;19.27;;;;;;;0.36;100.00;99430.63;5144045;28;20043;-96
2022/02/03 07:42:40;;;;;;;37.05;20.50;;;;;;;0.36;99.04;99435.84;5144146;28;20054;-96
2022/02/03 07:45:07;;;;;;;31.40;19.02;;;;;;;0.43;99.00;99443.00;5143290;28;20030;-94
2022/02/03 07:47:42;;;;;;;31.70;20.00;;;;;;;0.60;99.30;99436.44;5140215;28;20043;-95
2022/02/03 07:50:08;;;;;;;38.88;21.58;;;;;;;0.95;98.75;99459.91;5140864;27;20065;-95
2022/02/03 07:52:46;;;;;;;36.35;19.88;;;;;;;1.14;97.33;99471.69;5143531;28;20047;-96
2022/02/03 07:55:13;;;;;;;38.30;21.95;;;;;;;1.11;96.86;99449.81;5144079;28;20052;-94
2022/02/03 07:57:46;;;;;;;34.05;22.15;;;;;;;1.21;95.79;99447.41;5143312;28;20047;-95
2022/02/03 08:00:15;;;;;;;36.20;21.92;;;;;;;1.38;94.63;99475.69;5144226;28;20089;-95
2022/02/03 08:02:45;;;;;;;42.03;23.02;;;;;;;1.53;94.19;99490.84;5143162;28;20050;-96
2022/02/03 08:05:16;;;;;;;34.88;20.45;;;;;;;1.37;93.26;99458.22;5146001;28;20055;-95
2022/02/03 08:08:07;;;;;;;40.28;20.52;;;;;;;1.46;92.90;99461.03;5137876;27;20489;-96
2022/02/03 08:10:44;;;;;;;32.13;20.48;;;;;;;1.52;92.39;99462.84;5131094;28;20052;-95
2022/02/03 08:13:23;;;;;;;32.60;19.38;;;;;;;1.64;91.33;99479.72;5131259;28;20035;-96
2022/02/03 08:16:12;;;;;;;31.33;18.83;;;;;;;1.63;91.21;99471.84;5131951;28;20040;-96
2022/02/03 08:18:54;;;;;;;28.13;19.30;;;;;;;1.73;89.74;99468.53;5131973;28;20338;-96
2022/02/03 08:21:27;;;;;;;33.60;19.15;;;;;;;1.60;90.28;99467.41;5131504;28;20268;-96
2022/02/03 08:37:05;;;;;;;27.05;17.33;;;;;;;1.74;92.99;99495.66;6266078;22;1677548;-95
2022/02/03 08:39:37;;;;;;;30.27;17.17;;;;;;;1.82;92.86;99484.47;6264141;23;20028;-95
2022/02/03 08:42:04;;;;;;;30.38;18.23;;;;;;;2.02;93.01;99478.72;6271997;23;20042;-96
2022/02/03 08:44:33;;;;;;;31.27;18.30;;;;;;;2.15;92.77;99487.69;6275493;22;20003;-96
2022/02/03 08:47:03;;;;;;;29.48;19.10;;;;;;;2.38;92.71;99504.72;6272043;23;20043;-96
2022/02/03 08:52:17;;;;;;;35.03;21.20;;;;;;;2.48;91.12;99516.28;6263237;22;20016;-95
2022/02/03 08:55:07;;;;;;;39.78;20.33;;;;;;;2.78;90.54;99525.53;6268823;23;20441;-96
2022/02/03 08:57:56;;;;;;;25.83;18.02;;;;;;;2.85;89.05;99499.38;6244322;23;20016;-95
2022/02/03 09:59:08;;;;;;;37.15;23.55;;;;;;;5.11;80.21;99557.22;6272139;22;1419919;-95
2022/02/03 10:01:49;;;;;;;36.85;23.55;;;;;;;5.21;79.46;99536.22;6326753;22;20019;-96
2022/02/03 10:04:22;;;;;;;41.80;25.77;;;;;;;5.55;78.77;99555.75;6327883;22;20076;-95
2022/02/03 10:06:54;;;;;;;36.17;23.77;;;;;;;5.52;79.11;99539.94;6324784;22;20011;-95
2022/02/03 10:09:37;;;;;;;34.35;23.33;;;;;;;5.81;78.06;99550.63;6323176;22;20319;-93
2022/02/03 10:12:04;;;;;;;40.78;24.88;;;;;;;5.91;76.37;99536.59;6325916;22;20019;-95
2022/02/03 10:14:36;;;;;;;35.83;23.23;;;;;;;6.11;75.97;99538.47;6331592;22;20015;-94
2022/02/03 10:17:05;;;;;;;34.97;22.52;;;;;;;6.27;75.49;99544.69;6331248;22;20019;-95
2022/02/03 10:19:36;;;;;;;38.00;21.38;;;;;;;6.21;75.33;99539.38;6329573;22;20026;-95
2022/02/03 10:22:10;;;;;;;39.75;22.98;;;;;;;6.07;75.09;99547.25;6329496;22;20053;-94
2022/02/03 10:24:39;;;;;;;32.47;21.70;;;;;;;6.05;76.45;99562.19;6328669;22;20011;-94
2022/02/03 10:27:20;;;;;;;35.08;22.25;;;;;;;5.91;76.07;99518.13;6329772;22;20101;-94
2022/02/03 10:30:03;;;;;;;32.05;20.77;;;;;;;6.24;75.15;99529.69;6325632;22;20041;-95
2022/02/03 10:33:32;;;;;;;33.25;20.65;;;;;;;6.76;74.49;99564.13;6324994;22;20019;-94
2022/02/03 10:36:04;;;;;;;26.70;18.67;;;;;;;6.94;72.46;99533.28;6196558;23;20027;-95
2022/02/03 10:48:08;;;;;;;29.92;18.67;;;;;;;7.66;69.93;99513.78;5142169;27;20376;-93
2022/02/03 10:53:51;;;;;;;28.45;18.50;;;;;;;7.84;71.54;99510.19;5158293;27;20374;-93
2022/02/03 10:56:29;;;;;;;26.45;18.10;;;;;;;7.84;70.59;99508.41;5162227;27;20038;-95
2022/02/03 11:09:40;;;;;;;26.10;17.17;;;;;;;8.26;65.61;99500.25;5168464;27;20383;-95
2022/02/03 11:12:14;;;;;;;26.83;16.95;;;;;;;8.37;65.90;99493.09;5161573;27;20092;-93
2022/02/03 11:14:42;;;;;;;25.90;17.23;;;;;;;8.28;65.10;99490.53;5141082;27;20066;-93
2022/02/03 11:17:09;;;;;;;25.98;16.45;;;;;;;8.39;64.59;99512.53;5141019;27;20043;-94
2022/02/03 11:20:29;;;;;;;24.25;16.33;;;;;;;8.22;63.99;99481.75;5140019;27;20062;-94
2022/02/03 11:26:06;;;;;;;27.10;15.52;;;;;;;8.34;63.85;99483.41;5121260;27;20381;-93
2022/02/03 11:58:54;;;;;;;22.73;13.57;;;;;;;8.84;60.07;99405.25;5097790;27;20137;-93
2022/02/03 12:01:43;;;;;;;22.15;14.60;;;;;;;9.17;59.78;99435.03;5076652;28;20045;-95
2022/02/03 12:04:51;;;;;;;24.23;13.73;;;;;;;9.11;58.41;99402.34;5055738;28;20495;-94
2022/02/03 12:32:17;;;;;;;19.92;14.05;;;;;;;10.03;53.17;99370.16;5123767;27;20125;-94
2022/02/03 12:47:51;;;;;;;21.20;11.68;;;;;;;10.41;53.38;99373.13;5134523;27;1408417;-94
2022/02/03 12:50:23;;;;;;;21.00;12.52;;;;;;;10.52;53.13;99375.59;5185379;27;20046;-93
2022/02/03 12:52:55;;;;;;;18.92;11.95;;;;;;;10.41;52.62;99362.50;5184973;27;20042;-96
2022/02/03 12:55:44;;;;;;;20.50;12.20;;;;;;;10.40;52.64;99371.38;5198180;27;20056;-96
2022/02/03 12:58:42;;;;;;;16.65;11.50;;;;;;;10.43;53.26;99376.66;5209522;27;20087;-96
2022/02/03 13:01:15;;;;;;;18.98;11.45;;;;;;;10.34;53.52;99355.53;5207851;27;20045;-94
2022/02/03 13:03:51;;;;;;;18.40;11.02;;;;;;;10.33;52.95;99345.81;5207344;27;20038;-95
2022/02/03 13:06:22;;;;;;;17.55;11.05;;;;;;;10.58;52.30;99373.75;5209271;27;20048;-95
2022/02/03 13:08:54;;;;;;;16.50;11.65;;;;;;;10.45;52.44;99350.91;5209451;27;20121;-95
2022/02/03 13:14:20;;;;;;;17.45;11.95;;;;;;;10.63;52.67;99371.00;5164588;27;20135;-94
2022/02/03 13:16:57;;;;;;;20.30;11.57;;;;;;;10.54;51.82;99341.88;5144960;28;20043;-95
2022/02/03 13:19:35;;;;;;;19.17;12.32;;;;;;;10.58;51.42;99341.84;5144681;28;20045;-96
2022/02/03 13:22:20;;;;;;;23.35;12.65;;;;;;;10.56;51.10;99332.09;5145665;27;20069;-96
2022/02/03 14:15:05;;;;;;;19.08;11.40;;;;;;;11.57;51.28;99300.78;5120197;27;20384;-94
2022/02/03 14:42:48;;;;;;;27.92;15.00;;;;;;;11.50;53.37;99293.84;5137404;27;20321;-94
2022/02/03 14:45:15;;;;;;;31.87;15.43;;;;;;;11.47;53.53;99312.53;5136806;28;20087;-94
2022/02/03 14:47:41;;;;;;;25.25;15.40;;;;;;;11.36;53.41;99306.59;5136238;27;20272;-94
2022/02/03 14:50:10;;;;;;;34.45;17.58;;;;;;;11.34;53.80;99308.41;5135096;27;20054;-93
2022/02/03 14:58:35;;;;;;;19.75;13.05;;;;;;;11.46;52.68;99298.38;5113352;27;20378;-93
2022/02/03 15:01:03;;;;;;;21.73;13.13;;;;;;;11.70;50.62;99314.72;5097423;28;20075;-93
2022/02/03 15:03:33;;;;;;;21.98;12.90;;;;;;;11.54;51.49;99290.22;5096446;28;20048;-93
2022/02/03 15:06:03;;;;;;;18.08;11.90;;;;;;;11.46;52.95;99271.72;5098866;28;20048;-94
2022/02/03 15:11:27;;;;;;;20.10;13.43;;;;;;;11.31;51.81;99269.41;5123895;27;20861;-95
2022/02/03 15:13:55;;;;;;;21.95;14.60;;;;;;;11.18;53.29;99266.13;5123201;28;20040;-94
2022/02/03 15:16:21;;;;;;;20.95;13.48;;;;;;;11.23;54.85;99282.91;5119399;28;20319;-93
2022/02/03 15:18:48;;;;;;;21.80;13.18;;;;;;;11.13;56.51;99280.47;5118127;28;20054;-95
2022/02/03 15:21:21;;;;;;;22.67;13.43;;;;;;;10.94;54.00;99256.03;5121541;28;20101;-94
2022/02/03 15:23:52;;;;;;;22.48;14.30;;;;;;;10.87;53.47;99266.78;5125899;28;20039;-93
2022/02/03 15:26:21;;;;;;;19.65;14.95;;;;;;;10.96;54.16;99273.69;5119418;28;20518;-92
2022/02/03 15:28:47;;;;;;;19.95;14.13;;;;;;;11.08;57.51;99284.09;5119190;28;20107;-92
2022/02/03 15:31:13;;;;;;;21.60;13.98;;;;;;;11.08;55.72;99291.19;5118339;28;20075;-94
2022/02/03 15:33:44;;;;;;;27.10;16.73;;;;;;;11.12;54.51;99294.66;5118735;28;20039;-94
2022/02/03 15:36:13;;;;;;;25.67;15.32;;;;;;;10.96;55.46;99262.19;5121209;28;20051;-94
2022/02/03 15:38:45;;;;;;;21.98;15.77;;;;;;;11.03;55.14;99290.41;5119732;28;20036;-94
2022/02/03 15:41:20;;;;;;;23.27;15.73;;;;;;;11.04;54.25;99284.19;5119646;28;20028;-94
2022/02/03 15:43:50;;;;;;;24.70;17.23;;;;;;;10.81;53.36;99255.41;5119386;28;20048;-93
2022/02/03 15:46:19;;;;;;;25.25;17.75;;;;;;;10.75;54.42;99264.34;5118224;28;20524;-94
2022/02/03 15:48:54;;;;;;;;;;;;;;;10.75;55.59;99304.25;5118566;28;20047;-96
2022/02/03 15:58:00;;;;;;;28.92;17.05;;;;;;;9.97;65.75;99265.75;5149013;27;20389;-94
2022/02/03 16:17:51;;;;;;;31.83;19.83;;;;;;;8.96;68.76;99314.09;5138196;27;20368;-92
2022/02/03 16:20:22;;;;;;;33.90;19.70;;;;;;;8.83;69.38;99310.69;5139091;28;20073;-93
2022/02/03 16:22:57;;;;;;;75.80;39.03;;;;;;;8.68;68.85;99289.66;5138634;28;20070;-93
2022/02/03 16:26:06;;;;;;;45.70;24.52;;;;;;;8.57;69.69;99283.59;5138781;28;20054;-92
2022/02/03 16:55:25;;;;;;;34.50;19.83;;;;;;;8.56;71.66;99290.66;5118050;27;20708;-95
2022/02/03 16:57:52;;;;;;;28.75;17.45;;;;;;;8.68;72.34;99284.38;5118191;28;20039;-94
2022/02/03 17:00:19;;;;;;;30.38;17.90;;;;;;;8.82;72.04;99303.63;5126006;28;20039;-93
2022/02/03 17:02:45;;;;;;;24.63;16.40;;;;;;;8.72;72.41;99290.50;5117949;28;20047;-94
2022/02/03 17:05:12;;;;;;;26.83;15.60;;;;;;;8.66;73.41;99291.44;5120534;28;20493;-96
2022/02/03 17:07:39;;;;;;;24.63;16.10;;;;;;;8.72;74.44;99312.59;5114555;28;20061;-93
2022/02/03 17:10:06;;;;;;;22.33;15.48;;;;;;;8.90;74.16;99323.91;5118444;28;20112;-92
2022/02/03 17:12:33;;;;;;;23.63;16.35;;;;;;;8.81;73.82;99311.63;5116600;28;20044;-94
2022/02/03 17:14:59;;;;;;;22.00;14.52;;;;;;;8.86;73.56;99316.88;5118827;28;20040;-91
2022/02/03 17:17:26;;;;;;;24.08;15.60;;;;;;;8.89;73.99;99307.13;5119765;28;20036;-92
2022/02/03 17:19:53;;;;;;;24.60;15.85;;;;;;;9.09;73.68;99336.06;5118956;28;20531;-93
2022/02/03 17:22:25;;;;;;;28.55;15.50;;;;;;;8.88;74.04;99325.69;5117676;28;20035;-92
2022/02/03 17:31:18;;;;;;;21.90;14.93;;;;;;;9.02;73.73;99318.44;5077758;27;20403;-93
2022/02/03 17:52:33;;;;;;;29.92;19.20;;;;;;;8.39;77.32;99341.19;5163820;27;20130;-94
2022/02/03 18:51:28;;;;;;;24.73;15.65;;;;;;;7.90;88.95;99362.75;6209591;22;1404380;-94
2022/02/03 18:54:10;;;;;;;21.77;15.20;;;;;;;7.97;88.46;99383.00;6268517;22;20111;-94
2022/02/03 18:56:49;;;;;;;20.63;12.63;;;;;;;7.99;88.60;99394.47;6267965;22;20039;-94
2022/02/03 19:29:02;;;;;;;27.58;16.98;;;;;;;7.50;89.26;99407.09;5098931;27;20488;-94
2022/02/03 20:03:37;;;;;;;24.75;15.68;;;;;;;6.91;92.85;99435.47;5141358;27;20391;-93
2022/02/03 20:09:20;;;;;;;23.25;14.70;;;;;;;6.71;95.27;99414.38;5154233;27;20386;-94
2022/02/03 20:12:25;;;;;;;28.15;15.57;;;;;;;6.66;95.72;99417.03;5062387;28;20057;-95
2022/02/03 20:15:11;;;;;;;28.63;15.90;;;;;;;6.55;95.98;99424.06;5095582;28;20512;-95
2022/02/03 20:17:37;;;;;;;28.80;16.67;;;;;;;6.52;96.54;99435.50;5138182;27;20047;-96
2022/02/03 20:20:06;;;;;;;28.73;18.83;;;;;;;6.49;97.37;99430.22;5138295;28;20043;-95
2022/02/03 20:22:37;;;;;;;28.38;17.45;;;;;;;6.47;97.88;99428.47;5140671;28;20505;-95
2022/02/03 20:25:06;;;;;;;33.00;17.13;;;;;;;6.34;98.27;99415.25;5139569;27;20130;-96
2022/02/03 20:27:32;;;;;;;26.47;16.63;;;;;;;6.30;99.03;99439.03;5136653;28;20171;-94
2022/02/03 20:29:58;;;;;;;24.88;14.40;;;;;;;6.14;99.89;99438.13;5138719;27;20427;-95
2022/02/03 20:32:28;;;;;;;26.48;15.50;;;;;;;6.12;100.00;99456.63;5137206;27;20046;-96
2022/02/03 20:34:55;;;;;;;19.48;12.98;;;;;;;5.96;100.00;99437.22;5139069;27;20054;-94
2022/02/03 20:37:22;;;;;;;21.20;13.07;;;;;;;6.03;100.00;99451.31;5140688;27;20044;-93
2022/02/03 20:39:49;;;;;;;22.48;13.02;;;;;;;6.09;100.00;99463.63;5141825;27;20035;-94
2022/02/03 20:42:17;;;;;;;22.13;13.20;;;;;;;5.97;100.00;99449.53;5143200;27;20051;-94
2022/02/03 20:44:46;;;;;;;21.98;13.30;;;;;;;6.04;100.00;99460.13;5138416;27;20036;-95
2022/02/03 20:47:15;;;;;;;26.77;14.05;;;;;;;5.82;100.00;99424.84;5140812;27;20073;-93
2022/02/03 20:49:42;;;;;;;23.65;13.52;;;;;;;5.93;100.00;99454.78;5143669;27;20050;-95
2022/02/03 20:52:11;;;;;;;22.80;12.73;;;;;;;5.78;100.00;99433.63;5140167;27;20039;-95
2022/02/03 20:54:37;;;;;;;26.38;13.40;;;;;;;5.75;100.00;99453.84;5138778;27;20076;-93
2022/02/03 20:57:03;;;;;;;22.77;15.38;;;;;;;5.85;100.00;99467.94;5137797;27;20517;-94
2022/02/03 20:59:53;;;;;;;27.42;16.92;;;;;;;5.69;100.00;99458.22;5138901;28;20051;-94
2022/02/03 21:02:38;;;;;;;24.25;15.68;;;;;;;5.64;100.00;99462.59;5142767;28;20047;-94
2022/02/03 21:05:07;;;;;;;26.15;16.35;;;;;;;5.64;100.00;99468.75;5138455;27;20500;-93
2022/02/03 21:07:33;;;;;;;24.67;15.43;;;;;;;5.68;100.00;99467.91;5136269;27;20047;-95
2022/02/03 21:10:04;;;;;;;24.08;14.18;;;;;;;5.91;100.00;99489.06;5135455;28;20051;-95
2022/02/03 21:12:31;;;;;;;22.42;13.77;;;;;;;5.77;100.00;99451.22;5135734;27;20500;-95
2022/02/03 21:14:59;;;;;;;26.00;14.63;;;;;;;5.81;100.00;99450.31;5139824;27;20599;-96
2022/02/03 21:17:29;;;;;;;25.05;14.50;;;;;;;5.77;100.00;99435.38;5138141;27;20482;-94
2022/02/03 21:20:03;;;;;;;22.75;12.65;;;;;;;5.79;100.00;99441.56;5121214;28;20055;-94
2022/02/03 21:22:29;;;;;;;20.20;12.15;;;;;;;5.83;100.00;99463.53;5121740;28;20051;-93
2022/02/03 21:25:02;;;;;;;19.17;12.00;;;;;;;5.90;100.00;99473.25;5121194;28;20069;-94
2022/02/03 21:27:30;;;;;;;20.73;11.38;;;;;;;5.93;100.00;99455.66;5122687;28;20112;-94
2022/02/03 21:30:06;;;;;;;19.88;10.80;;;;;;;5.97;100.00;99456.59;5122305;28;20042;-94
2022/02/03 21:32:32;;;;;;;18.55;9.88;;;;;;;6.02;100.00;99475.94;5123529;27;20047;-94
2022/02/03 21:34:58;;;;;;;18.42;11.13;;;;;;;5.90;100.00;99449.50;5120763;28;20047;-94
2022/02/03 21:37:24;;;;;;;24.73;12.38;;;;;;;5.96;100.00;99473.28;5126896;28;20062;-93
2022/02/03 21:39:54;;;;;;;22.40;12.90;;;;;;;5.76;100.00;99441.53;5128859;28;20044;-94
2022/02/03 21:42:20;;;;;;;23.23;13.32;;;;;;;5.80;100.00;99447.69;5129461;28;20055;-95
2022/02/03 21:44:48;;;;;;;20.27;12.30;;;;;;;5.68;100.00;99438.88;5128854;28;20023;-93
2022/02/03 21:47:17;;;;;;;21.13;11.07;;;;;;;5.61;100.00;99436.19;5126438;27;20050;-95
2022/02/03 21:49:47;;;;;;;24.92;12.73;;;;;;;5.74;100.00;99453.84;5125040;28;20042;-93
2022/02/03 21:52:20;;;;;;;19.50;12.15;;;;;;;5.53;100.00;99409.78;5125914;28;20040;-96
2022/02/03 21:54:50;;;;;;;24.80;11.40;;;;;;;5.61;100.00;99425.66;5123850;28;20043;-94
2022/02/03 21:57:19;;;;;;;28.63;14.50;;;;;;;5.60;100.00;99422.13;5123529;28;20036;-95
2022/02/03 21:59:45;;;;;;;28.90;15.95;;;;;;;5.64;100.00;99423.00;5123096;28;20054;-95
2022/02/03 22:02:12;;;;;;;24.05;16.23;;;;;;;5.68;100.00;99437.97;5123020;27;20043;-95
2022/02/03 22:04:39;;;;;;;26.05;14.48;;;;;;;5.52;100.00;99400.97;5122920;28;20047;-95
2022/02/03 22:07:07;;;;;;;27.92;14.95;;;;;;;5.61;100.00;99434.44;5122985;28;20413;-95
2022/02/03 22:09:35;;;;;;;21.50;13.20;;;;;;;5.47;100.00;99415.94;5121620;28;20072;-94
2022/02/03 22:12:05;;;;;;;26.95;14.30;;;;;;;5.45;100.00;99412.41;5120899;28;20117;-94
2022/02/03 22:14:31;;;;;;;27.48;14.00;;;;;;;5.45;100.00;99420.31;5121831;28;20039;-94
2022/02/03 22:17:06;;;;;;;24.80;13.63;;;;;;;5.40;100.00;99424.69;5120574;28;20070;-95
2022/02/03 22:19:34;;;;;;;29.23;13.82;;;;;;;5.36;100.00;99441.38;5122814;28;20048;-96
2022/02/03 22:25:27;;;;;;;19.77;10.95;;;;;;;5.14;100.00;99393.81;5178426;27;20376;-95
2022/02/03 22:47:54;;;;;;;26.35;12.40;;;;;;;5.96;95.88;99383.53;5114041;27;20388;-95
2022/02/03 22:50:20;;;;;;;27.85;13.98;;;;;;;5.84;95.69;99381.72;5093105;28;20052;-95
2022/02/03 22:52:46;;;;;;;33.50;15.50;;;;;;;5.76;96.33;99379.06;5093503;28;20074;-95
2022/02/03 22:55:13;;;;;;;21.42;12.32;;;;;;;5.78;96.91;99394.03;5113204;28;20051;-95
2022/02/03 22:57:44;;;;;;;21.90;10.00;;;;;;;5.94;95.50;99404.66;5114870;28;20541;-94
2022/02/03 23:02:51;;;;;;;18.73;8.10;;;;;;;6.33;92.60;99421.44;5135668;27;20375;-94
2022/02/03 23:05:17;;;;;;;16.48;8.18;;;;;;;6.36;92.26;99402.06;5134924;27;20096;-95
2022/02/03 23:10:46;;;;;;;18.00;7.90;;;;;;;6.39;91.71;99399.41;5106395;27;20376;-94
2022/02/03 23:25:06;;;;;;;17.92;8.02;;;;;;;6.09;93.13;99392.34;5134413;27;20727;-94
2022/02/03 23:30:22;;;;;;;32.95;14.27;;;;;;;5.99;94.09;99385.31;5093243;27;20386;-96
2022/02/03 23:32:50;;;;;;;21.80;10.95;;;;;;;5.79;94.12;99356.19;5093309;28;20040;-95
2022/02/03 23:35:22;;;;;;;12.32;6.78;;;;;;;5.78;94.86;99360.59;5093348;28;20047;-94
2022/02/03 23:37:54;;;;;;;13.63;6.78;;;;;;;5.65;95.21;99340.34;5093107;28;20101;-94
